Time;durP1;ratioP1;P1;durP2;ratioP2;P2;SDS_P1;SDS_P2;PMS_P1;PMS_P2;Temp;Humidity;BMP_temperature;BMP_pressure;BME280_temperature;BME280_humidity;BME280_pressure;Samples;Min_cycle;Max_cycle;Signal;HPM_P1;HPM_P2
2022/01/30 00:02:26;;;;;;;;;;;;;;;-4.63;88.42;100262.44;5091557;28;2001;-56
2022/01/30 00:04:53;;;;;;;;;;;;;;;-4.61;89.04;100245.94;5091691;28;886;-57
2022/01/30 00:07:20;;;;;;;;;;;;;;;-4.35;88.67;100239.13;5091502;28;859;-57
2022/01/30 00:09:48;;;;;;;;;;;;;;;-4.22;88.45;100237.56;5073533;28;1312;-57
2022/01/30 00:12:17;;;;;;;;;;;;;;;-4.17;88.33;100237.50;5091447;28;863;-56
2022/01/30 00:14:44;;;;;;;;;;;;;;;-4.14;88.10;100228.00;5091495;28;922;-57
2022/01/30 00:17:20;;;;;;;;;;;;;;;-4.15;88.02;100234.50;5091710;28;1395;-57
2022/01/30 00:20:01;;;;;;;;;;;;;;;-4.10;88.03;100226.31;5091641;28;538;-56
2022/01/30 00:22:44;;;;;;;;;;;;;;;-4.12;87.69;100223.94;5091221;28;1906;-56
2022/01/30 00:25:16;;;;;;;;;;;;;;;-3.96;88.60;100223.69;5091365;28;969;-56
2022/01/30 00:27:49;;;;;;;;;;;;;;;-3.60;88.05;100215.78;5091422;28;960;-57
2022/01/30 00:30:17;;;;;;;;;;;;;;;-3.36;86.98;100206.69;5095756;28;937;-56
2022/01/30 00:32:44;;;;;;;;;;;;;;;-3.16;84.90;100198.19;5096078;28;830;-56
2022/01/30 00:35:11;;;;;;;;;;;;;;;-2.90;84.20;100193.06;5095512;28;811;-57
2022/01/30 00:37:40;;;;;;;;;;;;;;;-2.68;83.58;100195.03;5095784;28;806;-56
2022/01/30 00:40:07;;;;;;;;;;;;;;;-2.87;83.46;100195.16;5095317;28;910;-56
2022/01/30 00:42:33;;;;;;;;;;;;;;;-2.88;83.53;100184.63;5095286;28;2063;-56
2022/01/30 00:45:00;;;;;;;;;;;;;;;-2.88;82.84;100180.03;5095431;28;874;-56
2022/01/30 00:47:26;;;;;;;;;;;;;;;-2.96;82.59;100175.34;5095473;28;862;-56
2022/01/30 00:49:52;;;;;;;;;;;;;;;-2.80;81.97;100164.19;5095273;28;850;-56
2022/01/30 00:52:19;;;;;;;;;;;;;;;-2.59;81.25;100167.25;5095415;28;861;-56
2022/01/30 00:54:46;;;;;;;;;;;;;;;-2.29;80.48;100158.41;5095411;28;855;-56
2022/01/30 00:57:12;;;;;;;;;;;;;;;-2.07;79.03;100165.75;5095107;28;895;-56
2022/01/30 00:59:39;;;;;;;;;;;;;;;-2.07;78.37;100157.63;5095894;28;755;-56
2022/01/30 01:02:05;;;;;;;;;;;;;;;-1.99;78.75;100152.53;5094798;28;1874;-56
2022/01/30 01:04:32;;;;;;;;;;;;;;;-1.99;78.16;100158.75;5095014;28;819;-56
2022/01/30 01:06:58;;;;;;;;;;;;;;;-2.04;77.83;100148.06;5094845;28;958;-56
2022/01/30 01:09:32;;;;;;;;;;;;;;;-2.07;77.41;100146.78;5095218;28;901;-57
2022/01/30 01:25:42;;;;;;;;;;;;;;;-3.24;80.33;100098.03;5094928;28;633;-56
2022/01/30 01:28:09;;;;;;;;;;;;;;;-3.04;79.76;100094.91;5094454;28;901;-57
2022/01/30 01:30:35;;;;;;;;;;;;;;;-3.00;79.76;100087.00;5094478;28;803;-56
2022/01/30 01:33:03;;;;;;;;;;;;;;;-2.98;78.87;100082.88;5094373;28;937;-57
2022/01/30 01:35:30;;;;;;;;;;;;;;;-2.91;79.24;100077.03;5094394;28;807;-56
2022/01/30 01:37:57;;;;;;;;;;;;;;;-3.03;78.62;100066.78;5094493;28;798;-57
2022/01/30 01:40:23;;;;;;;;;;;;;;;-3.21;79.21;100060.41;5093399;28;1889;-56
2022/01/30 01:42:50;;;;;;;;;;;;;;;-3.24;79.72;100055.59;5094366;28;818;-56
2022/01/30 01:45:20;;;;;;;;;;;;;;;-3.22;79.39;100057.97;5094274;28;858;-56
2022/01/30 01:47:46;;;;;;;;;;;;;;;-3.28;79.61;100051.91;5109210;28;818;-56
2022/01/30 01:50:27;;;;;;;;;;;;;;;-3.23;79.80;100040.97;5094161;28;847;-56
2022/01/30 01:52:53;;;;;;;;;;;;;;;-2.94;80.00;100034.38;5093898;28;953;-56
2022/01/30 01:55:19;;;;;;;;;;;;;;;-2.82;79.31;100029.22;5094234;28;826;-56
2022/01/30 01:57:45;;;;;;;;;;;;;;;-2.71;78.04;100027.88;5094329;28;869;-56
2022/01/30 02:00:12;;;;;;;;;;;;;;;-2.67;77.73;100020.75;5094099;28;846;-56
2022/01/30 02:02:38;;;;;;;;;;;;;;;-2.62;77.50;100017.09;5093894;28;1952;-56
2022/01/30 02:05:06;;;;;;;;;;;;;;;-2.70;77.99;100020.56;5075619;28;1284;-56
2022/01/30 02:10:06;;;;;;;;;;;;;;;-2.87;77.89;100013.13;5093784;28;712;-56
2022/01/30 02:12:46;;;;;;;;;;;;;;;-3.01;78.14;100006.94;5093646;28;886;-56
2022/01/30 02:26:04;;;;;;;;;;;;;;;-3.91;80.13;100002.94;5093461;28;632;-56
2022/01/30 02:28:33;;;;;;;;;;;;;;;-3.87;80.48;100000.44;5093382;28;879;-56
2022/01/30 02:31:06;;;;;;;;;;;;;;;-3.82;80.39;99996.81;5075286;28;1192;-56
2022/01/30 02:33:33;;;;;;;;;;;;;;;-3.73;80.69;99998.53;5093350;28;826;-56
2022/01/30 02:35:59;;;;;;;;;;;;;;;-3.62;80.79;99991.00;5093227;28;881;-56
2022/01/30 02:38:27;;;;;;;;;;;;;;;-3.46;80.35;99987.97;5093265;28;838;-56
2022/01/30 02:40:56;;;;;;;;;;;;;;;-3.26;80.52;99984.81;5093105;28;1889;-56
2022/01/30 02:43:31;;;;;;;;;;;;;;;-2.99;80.15;99983.91;5093070;28;1041;-57
2022/01/30 02:46:12;;;;;;;;;;;;;;;-2.95;79.27;99989.50;5092757;28;863;-56
2022/01/30 02:48:51;;;;;;;;;;;;;;;-3.00;79.28;99993.13;5092871;28;945;-56
2022/01/30 02:51:20;;;;;;;;;;;;;;;-3.38;79.15;99985.34;5092978;28;783;-56
2022/01/30 02:53:55;;;;;;;;;;;;;;;-3.60;79.82;99986.09;5092856;28;938;-56
2022/01/30 02:56:22;;;;;;;;;;;;;;;-3.65;79.75;99978.09;5093050;28;925;-57
2022/01/30 02:58:48;;;;;;;;;;;;;;;-3.65;80.26;99985.41;5092827;28;930;-57
2022/01/30 03:01:15;;;;;;;;;;;;;;;-3.36;80.47;99983.13;5092757;28;1952;-57
2022/01/30 03:03:41;;;;;;;;;;;;;;;-3.32;79.53;99984.13;5092608;28;770;-56
2022/01/30 03:06:08;;;;;;;;;;;;;;;-3.46;79.27;99980.66;5092798;28;874;-56
2022/01/30 03:08:34;;;;;;;;;;;;;;;-3.66;79.73;99979.19;5092365;28;926;-56
2022/01/30 03:11:00;;;;;;;;;;;;;;;-3.94;80.13;99975.75;5092652;28;866;-56
2022/01/30 03:13:26;;;;;;;;;;;;;;;-4.09;80.77;99973.34;5092389;28;894;-56
2022/01/30 03:15:53;;;;;;;;;;;;;;;-4.14;81.40;99963.44;5092564;28;1116;-56
2022/01/30 03:18:19;;;;;;;;;;;;;;;-4.09;81.27;99957.16;5092310;28;1264;-56
2022/01/30 03:20:47;;;;;;;;;;;;;;;-4.04;81.35;99951.66;5092405;28;1918;-57
2022/01/30 03:23:14;;;;;;;;;;;;;;;-3.97;81.49;99947.44;5092341;28;898;-57
2022/01/30 03:25:40;;;;;;;;;;;;;;;-3.98;81.67;99948.53;5092214;28;952;-56
2022/01/30 03:28:07;;;;;;;;;;;;;;;-3.97;82.09;99947.44;5092329;28;936;-57
2022/01/30 03:30:34;;;;;;;;;;;;;;;-4.00;81.58;99948.03;5092573;28;843;-56
2022/01/30 03:33:00;;;;;;;;;;;;;;;-4.08;82.27;99939.84;5092080;28;873;-56
2022/01/30 03:35:26;;;;;;;;;;;;;;;-4.19;81.99;99934.66;5092232;28;861;-57
2022/01/30 03:37:53;;;;;;;;;;;;;;;-4.39;82.00;99932.38;5092213;28;842;-56
2022/01/30 03:40:19;;;;;;;;;;;;;;;-4.60;82.00;99930.03;5092180;28;1913;-56
2022/01/30 03:42:45;;;;;;;;;;;;;;;-4.65;81.87;99932.00;5092398;28;810;-57
2022/01/30 03:45:12;;;;;;;;;;;;;;;-4.81;81.71;99934.19;5092756;28;771;-56
2022/01/30 03:47:38;;;;;;;;;;;;;;;-5.07;82.24;99933.84;5073903;28;1175;-56
2022/01/30 03:50:04;;;;;;;;;;;;;;;-5.17;82.72;99924.00;5091850;28;866;-56
2022/01/30 03:52:31;;;;;;;;;;;;;;;-5.14;83.00;99921.53;5091738;28;906;-56
2022/01/30 03:54:57;;;;;;;;;;;;;;;-5.18;83.32;99911.66;5091989;28;839;-56
2022/01/30 03:57:24;;;;;;;;;;;;;;;-5.24;83.59;99916.31;5091872;28;823;-57
2022/01/30 03:59:50;;;;;;;;;;;;;;;-5.38;82.96;99905.47;5091599;28;935;-56
2022/01/30 04:02:17;;;;;;;;;;;;;;;-5.56;83.42;99911.69;5091314;28;1949;-56
2022/01/30 04:04:43;;;;;;;;;;;;;;;-5.75;83.48;99919.75;5091652;28;855;-56
2022/01/30 04:07:10;;;;;;;;;;;;;;;-5.91;83.94;99912.97;5091948;28;839;-56
2022/01/30 04:09:36;;;;;;;;;;;;;;;-5.78;85.50;99905.00;5091607;28;867;-56
2022/01/30 04:12:03;;;;;;;;;;;;;;;-5.68;85.04;99912.13;5091654;28;787;-56
2022/01/30 04:14:29;;;;;;;;;;;;;;;-5.60;85.40;99899.91;5091456;28;878;-56
2022/01/30 04:16:57;;;;;;;;;;;;;;;-5.41;85.35;99903.38;5091745;28;1367;-56
2022/01/30 04:19:24;;;;;;;;;;;;;;;-5.26;85.54;99904.22;5091467;28;936;-57
2022/01/30 04:21:50;;;;;;;;;;;;;;;-5.14;85.53;99899.97;5091468;28;1906;-56
2022/01/30 04:24:16;;;;;;;;;;;;;;;-5.00;85.35;99899.19;5091518;28;818;-57
2022/01/30 04:26:44;;;;;;;;;;;;;;;-4.99;85.33;99898.13;5091536;28;854;-57
2022/01/30 04:29:11;;;;;;;;;;;;;;;-5.00;85.36;99897.31;5073323;28;854;-56
2022/01/30 04:31:36;;;;;;;;;;;;;;;-5.00;85.64;99883.81;5091525;28;838;-57
2022/01/30 04:34:03;;;;;;;;;;;;;;;-4.97;85.97;99893.22;5091466;28;861;-57
2022/01/30 04:36:35;;;;;;;;;;;;;;;-4.86;86.27;99888.47;5091690;28;890;-56
2022/01/30 04:39:14;;;;;;;;;;;;;;;-4.82;86.21;99894.84;5091338;28;819;-57
2022/01/30 04:42:06;;;;;;;;;;;;;;;-4.95;85.75;99889.16;5091228;28;1976;-57
2022/01/30 04:58:16;;;;;;;;;;;;;;;-5.04;86.17;99860.47;5091454;28;617;-55
2022/01/30 05:03:34;;;;;;;;;;;;;;;-4.73;86.40;99855.31;5091448;28;726;-55
2022/01/30 05:06:08;;;;;;;;;;;;;;;-4.61;85.68;99858.31;5072905;28;2023;-55
2022/01/30 05:08:35;;;;;;;;;;;;;;;-4.46;85.45;99859.09;5090966;28;961;-55
2022/01/30 05:11:07;;;;;;;;;;;;;;;-4.47;85.08;99860.22;5091111;28;904;-55
2022/01/30 05:13:36;;;;;;;;;;;;;;;-4.44;85.33;99860.38;5090820;28;958;-55
2022/01/30 05:16:02;;;;;;;;;;;;;;;-4.52;85.14;99856.50;5094487;28;1018;-55
2022/01/30 05:18:29;;;;;;;;;;;;;;;-4.47;85.09;99858.28;5076403;28;1656;-55
2022/01/30 05:20:56;;;;;;;;;;;;;;;-4.45;84.95;99848.00;5094712;28;1909;-55
2022/01/30 05:23:23;;;;;;;;;;;;;;;-4.51;84.80;99841.91;5094646;28;795;-55
2022/01/30 05:25:50;;;;;;;;;;;;;;;-4.58;84.90;99841.53;5094630;28;858;-55
2022/01/30 05:28:18;;;;;;;;;;;;;;;-4.56;84.72;99846.63;5094853;28;810;-56
2022/01/30 05:30:44;;;;;;;;;;;;;;;-4.60;85.26;99843.72;5094614;28;811;-56
2022/01/30 05:33:12;;;;;;;;;;;;;;;-4.57;85.03;99839.63;5094473;28;807;-56
2022/01/30 05:35:39;;;;;;;;;;;;;;;-4.48;84.96;99834.31;5094487;28;863;-55
2022/01/30 05:38:06;;;;;;;;;;;;;;;-4.52;84.61;99834.91;5094338;28;870;-55
2022/01/30 05:40:35;;;;;;;;;;;;;;;-4.53;84.84;99830.63;5094250;28;1947;-55
2022/01/30 05:43:03;;;;;;;;;;;;;;;-4.46;85.06;99821.31;5094478;28;849;-55
2022/01/30 05:45:35;;;;;;;;;;;;;;;-4.46;84.75;99824.03;5094158;28;1023;-56
2022/01/30 05:48:10;;;;;;;;;;;;;;;-4.53;84.55;99813.63;5093995;28;826;-55
2022/01/30 05:50:37;;;;;;;;;;;;;;;-4.61;84.93;99823.25;5094136;28;898;-56
2022/01/30 05:53:03;;;;;;;;;;;;;;;-4.57;85.44;99820.72;5094201;28;954;-55
2022/01/30 05:55:31;;;;;;;;;;;;;;;-4.51;85.15;99817.63;5093981;28;925;-55
2022/01/30 05:57:58;;;;;;;;;;;;;;;-4.33;85.32;99812.44;5093930;28;879;-55
2022/01/30 06:00:24;;;;;;;;;;;;;;;-4.09;85.12;99809.47;5094017;28;815;-55
2022/01/30 06:02:51;;;;;;;;;;;;;;;-3.86;83.97;99809.47;5093968;28;536;-55
2022/01/30 06:05:20;;;;;;;;;;;;;;;-3.80;82.51;99798.25;5093907;28;850;-55
2022/01/30 06:07:52;;;;;;;;;;;;;;;-3.73;82.19;99801.34;5094079;28;921;-55
2022/01/30 06:10:20;;;;;;;;;;;;;;;-3.59;81.21;99812.06;5093671;28;954;-55
2022/01/30 06:12:46;;;;;;;;;;;;;;;-3.41;80.73;99796.78;5093678;28;870;-55
2022/01/30 06:15:13;;;;;;;;;;;;;;;-3.23;79.51;99799.56;5093577;28;999;-55
2022/01/30 06:17:40;;;;;;;;;;;;;;;-3.15;78.64;99782.59;5093389;28;1350;-55
2022/01/30 06:20:07;;;;;;;;;;;;;;;-3.20;78.66;99780.00;5093506;28;867;-56
2022/01/30 06:22:33;;;;;;;;;;;;;;;-3.24;78.39;99776.34;5093466;28;1969;-56
2022/01/30 06:25:00;;;;;;;;;;;;;;;-3.26;78.32;99775.84;5093465;28;810;-55
2022/01/30 06:27:27;;;;;;;;;;;;;;;-3.65;78.63;99770.06;5093524;28;850;-55
2022/01/30 06:29:54;;;;;;;;;;;;;;;-3.87;80.21;99762.78;5093385;28;803;-55
2022/01/30 06:32:20;;;;;;;;;;;;;;;-3.94;81.44;99760.50;5093242;28;924;-55
2022/01/30 06:34:47;;;;;;;;;;;;;;;-3.34;80.68;99761.97;5093160;28;922;-56
2022/01/30 06:37:13;;;;;;;;;;;;;;;-2.54;79.03;99753.03;5093606;28;889;-55
2022/01/30 06:39:40;;;;;;;;;;;;;;;-1.92;76.99;99746.50;5093134;28;870;-55
2022/01/30 06:42:07;;;;;;;;;;;;;;;-1.91;76.36;99745.41;5093050;28;1945;-55
2022/01/30 06:44:34;;;;;;;;;;;;;;;-2.08;77.09;99746.22;5093138;28;834;-56
2022/01/30 06:47:01;;;;;;;;;;;;;;;-1.62;75.96;99766.44;5092972;28;886;-55
2022/01/30 06:49:27;;;;;;;;;;;;;;;-1.58;75.65;99753.81;5093081;28;798;-55
2022/01/30 06:51:54;;;;;;;;;;;;;;;-2.12;76.60;99745.25;5093008;28;1016;-56
2022/01/30 06:54:20;;;;;;;;;;;;;;;-1.80;77.42;99733.13;5092864;28;870;-56
2022/01/30 06:56:46;;;;;;;;;;;;;;;-1.38;75.96;99738.78;5092801;28;847;-55
2022/01/30 06:59:13;;;;;;;;;;;;;;;-1.23;75.49;99751.78;5092926;28;819;-56
2022/01/30 07:01:39;;;;;;;;;;;;;;;-1.50;75.51;99760.31;5092484;28;1882;-55
2022/01/30 07:04:06;;;;;;;;;;;;;;;-1.95;76.80;99745.25;5092822;28;870;-55
2022/01/30 07:06:33;;;;;;;;;;;;;;;-2.01;77.80;99745.72;5092589;28;870;-55
2022/01/30 07:09:00;;;;;;;;;;;;;;;-1.90;77.52;99745.09;5092356;28;895;-55
2022/01/30 07:11:26;;;;;;;;;;;;;;;-1.95;77.37;99752.59;5092613;28;867;-55
2022/01/30 07:13:52;;;;;;;;;;;;;;;-2.19;77.84;99763.91;5092613;28;799;-55
2022/01/30 07:16:19;;;;;;;;;;;;;;;-2.11;77.78;99755.78;5092649;28;1038;-55
2022/01/30 07:18:44;;;;;;;;;;;;;;;-2.13;77.67;99768.84;5092108;28;1155;-55
2022/01/30 07:21:11;;;;;;;;;;;;;;;-2.18;77.86;99760.06;5092526;28;1969;-55
2022/01/30 07:23:40;;;;;;;;;;;;;;;-1.83;77.90;99757.34;5092314;28;1089;-55
2022/01/30 07:26:07;;;;;;;;;;;;;;;-1.92;77.12;99773.59;5092282;28;878;-55
2022/01/30 07:28:34;;;;;;;;;;;;;;;-2.06;77.72;99763.75;5092325;28;818;-55
2022/01/30 07:31:01;;;;;;;;;;;;;;;-1.93;78.11;99751.16;5092140;28;886;-56
2022/01/30 07:33:27;;;;;;;;;;;;;;;-2.03;77.65;99753.38;5092175;28;917;-55
2022/01/30 07:35:56;;;;;;;;;;;;;;;-2.17;78.53;99745.44;5092043;28;891;-55
2022/01/30 07:38:23;;;;;;;;;;;;;;;-1.81;78.47;99752.41;5091484;28;842;-56
2022/01/30 07:40:50;;;;;;;;;;;;;;;-1.72;77.65;99753.19;5092108;28;1985;-55
2022/01/30 07:43:17;;;;;;;;;;;;;;;-1.65;77.35;99750.78;5092163;28;850;-55
2022/01/30 07:45:43;;;;;;;;;;;;;;;-1.73;77.51;99747.00;5092074;28;897;-55
2022/01/30 07:48:10;;;;;;;;;;;;;;;-1.94;77.94;99744.16;5091839;28;933;-55
2022/01/30 07:50:36;;;;;;;;;;;;;;;-2.06;78.32;99739.34;5091924;28;932;-55
2022/01/30 07:53:03;;;;;;;;;;;;;;;-2.17;78.58;99735.38;5092018;28;1027;-55
2022/01/30 07:55:29;;;;;;;;;;;;;;;-2.08;79.00;99738.88;5091941;28;830;-55
2022/01/30 07:57:56;;;;;;;;;;;;;;;-1.93;79.50;99724.06;5092013;28;863;-55
2022/01/30 08:00:22;;;;;;;;;;;;;;;-1.77;79.07;99723.53;5092075;28;862;-55
2022/01/30 08:02:50;;;;;;;;;;;;;;;-1.67;78.40;99715.88;5091949;28;1940;-55
2022/01/30 08:05:16;;;;;;;;;;;;;;;-1.61;78.72;99711.09;5091886;28;889;-55
2022/01/30 08:07:42;;;;;;;;;;;;;;;-1.13;77.59;99707.25;5091955;28;905;-55
2022/01/30 08:10:09;;;;;;;;;;;;;;;-0.69;75.93;99702.38;5092154;28;799;-55
2022/01/30 08:12:37;;;;;;;;;;;;;;;-0.48;75.46;99715.19;5091642;28;838;-55
2022/01/30 08:15:05;;;;;;;;;;;;;;;-0.48;74.58;99715.97;5091692;28;1037;-55
2022/01/30 08:17:33;;;;;;;;;;;;;;;-0.49;73.60;99713.56;5098510;28;1372;-55
2022/01/30 08:20:00;;;;;;;;;;;;;;;-0.52;73.70;99708.81;5112046;28;861;-55
2022/01/30 08:22:29;;;;;;;;;;;;;;;-0.42;73.30;99692.91;5112207;28;1981;-57
2022/01/30 08:24:56;;;;;;;;;;;;;;;-0.06;72.87;99685.28;5111866;28;924;-57
2022/01/30 08:27:22;;;;;;;;;;;;;;;0.69;71.95;99671.50;5111965;28;866;-55
2022/01/30 08:29:49;;;;;;;;;;;;;;;1.40;69.62;99666.69;5112006;28;814;-54
2022/01/30 08:32:15;;;;;;;;;;;;;;;1.49;69.11;99672.78;5111810;28;905;-55
2022/01/30 08:34:42;;;;;;;;;;;;;;;1.75;68.59;99666.13;5112032;28;1089;-55
2022/01/30 08:37:08;;;;;;;;;;;;;;;1.81;68.60;99653.84;5111721;28;870;-55
2022/01/30 08:39:35;;;;;;;;;;;;;;;1.58;68.64;99653.56;5111965;28;1015;-55
2022/01/30 08:42:01;;;;;;;;;;;;;;;1.35;68.88;99648.66;5111783;28;1945;-55
2022/01/30 08:44:27;;;;;;;;;;;;;;;0.80;69.86;99647.38;5111887;28;1297;-55
2022/01/30 08:46:53;;;;;;;;;;;;;;;0.44;70.52;99659.03;5112416;28;830;-55
2022/01/30 08:49:20;;;;;;;;;;;;;;;0.29;70.63;99666.69;5112504;28;810;-55
2022/01/30 08:51:47;;;;;;;;;;;;;;;0.04;71.41;99654.94;5115779;28;830;-57
2022/01/30 08:54:13;;;;;;;;;;;;;;;-0.21;72.57;99662.25;5115626;28;930;-56
2022/01/30 08:56:40;;;;;;;;;;;;;;;-0.28;72.87;99662.78;5115583;28;842;-55
2022/01/30 08:59:06;;;;;;;;;;;;;;;-0.33;72.69;99659.47;5115595;28;814;-55
2022/01/30 09:01:33;;;;;;;;;;;;;;;-0.34;72.76;99661.41;5115548;28;1890;-56
2022/01/30 09:04:00;;;;;;;;;;;;;;;-0.25;72.97;99669.47;5115337;28;924;-55
2022/01/30 09:06:26;;;;;;;;;;;;;;;-0.13;72.53;99666.78;5115490;28;990;-56
2022/01/30 09:08:52;;;;;;;;;;;;;;;-0.04;71.89;99670.22;5115359;28;878;-56
2022/01/30 09:11:19;;;;;;;;;;;;;;;0.06;71.67;99671.72;5115334;28;850;-55
2022/01/30 09:13:46;;;;;;;;;;;;;;;0.13;71.01;99672.00;5115325;28;881;-55
2022/01/30 09:16:12;;;;;;;;;;;;;;;0.13;70.70;99668.47;5115516;28;997;-55
2022/01/30 09:18:39;;;;;;;;;;;;;;;0.05;71.13;99666.63;5114890;28;1248;-55
2022/01/30 09:21:05;;;;;;;;;;;;;;;-0.08;71.07;99672.03;5115073;28;1910;-55
2022/01/30 09:23:31;;;;;;;;;;;;;;;-0.11;72.26;99658.31;5115121;28;885;-55
2022/01/30 09:25:57;;;;;;;;;;;;;;;-0.08;72.40;99657.66;5115362;28;837;-57
2022/01/30 09:28:24;;;;;;;;;;;;;;;-0.16;71.69;99648.44;5115083;28;853;-57
2022/01/30 09:30:51;;;;;;;;;;;;;;;-0.28;72.10;99632.91;5114972;28;873;-57
2022/01/30 09:33:17;;;;;;;;;;;;;;;-0.32;72.46;99633.88;5115109;28;877;-57
2022/01/30 09:35:43;;;;;;;;;;;;;;;-0.35;72.90;99635.34;5114924;28;902;-57
2022/01/30 09:38:10;;;;;;;;;;;;;;;-0.46;73.29;99631.47;5114731;28;882;-57
2022/01/30 09:40:36;;;;;;;;;;;;;;;-0.52;73.87;99633.56;5114722;28;1953;-57
2022/01/30 09:43:03;;;;;;;;;;;;;;;-0.52;73.94;99628.16;5114726;28;814;-57
2022/01/30 09:45:30;;;;;;;;;;;;;;;-0.53;74.48;99628.50;5114669;28;1058;-57
2022/01/30 09:47:58;;;;;;;;;;;;;;;-0.51;74.51;99621.59;5114613;28;822;-57
2022/01/30 09:50:24;;;;;;;;;;;;;;;-0.44;74.16;99627.28;5114559;28;909;-57
2022/01/30 09:52:51;;;;;;;;;;;;;;;-0.33;74.25;99624.94;5114478;28;905;-57
2022/01/30 09:55:18;;;;;;;;;;;;;;;-0.30;73.94;99623.47;5114570;28;948;-57
2022/01/30 09:57:44;;;;;;;;;;;;;;;-0.32;74.17;99625.75;5114373;28;1000;-57
2022/01/30 10:00:12;;;;;;;;;;;;;;;-0.31;74.29;99606.41;5114010;28;901;-57
2022/01/30 10:02:42;;;;;;;;;;;;;;;-0.27;74.37;99604.59;5114269;28;1889;-56
2022/01/30 10:05:08;;;;;;;;;;;;;;;-0.16;74.48;99604.19;5114357;28;807;-57
2022/01/30 10:07:46;;;;;;;;;;;;;;;-0.03;74.34;99606.59;5114673;28;1159;-57
2022/01/30 10:10:13;;;;;;;;;;;;;;;0.18;73.84;99611.97;5114343;28;957;-57
2022/01/30 10:12:58;;;;;;;;;;;;;;;0.38;73.56;99607.59;5114337;28;940;-57
2022/01/30 10:15:24;;;;;;;;;;;;;;;0.49;72.95;99599.78;5114312;28;1128;-56
2022/01/30 10:17:51;;;;;;;;;;;;;;;0.50;72.90;99587.75;5113907;28;1270;-56
2022/01/30 10:20:19;;;;;;;;;;;;;;;0.57;72.54;99584.47;5114029;28;1053;-56
2022/01/30 10:22:56;;;;;;;;;;;;;;;0.69;71.96;99570.06;5114038;28;1964;-57
2022/01/30 10:25:26;;;;;;;;;;;;;;;0.73;71.13;99570.97;5113874;28;897;-57
2022/01/30 10:28:15;;;;;;;;;;;;;;;0.74;70.39;99557.00;5095691;28;862;-56
2022/01/30 10:30:43;;;;;;;;;;;;;;;0.77;69.22;99545.47;5107931;28;1213;-56
2022/01/30 10:33:12;;;;;;;;;;;;;;;0.80;69.15;99538.53;5113943;28;889;-57
2022/01/30 10:35:50;;;;;;;;;;;;;;;0.84;68.04;99520.38;5113931;28;873;-57
2022/01/30 10:38:22;;;;;;;;;;;;;;;0.99;68.13;99521.59;5113481;28;908;-57
2022/01/30 10:40:55;;;;;;;;;;;;;;;1.16;67.86;99521.31;5113529;28;1938;-57
2022/01/30 10:43:21;;;;;;;;;;;;;;;1.32;66.73;99517.84;5113482;28;913;-57
2022/01/30 10:45:47;;;;;;;;;;;;;;;1.34;66.11;99510.91;5113527;28;858;-57
2022/01/30 10:48:21;;;;;;;;;;;;;;;1.14;65.31;99504.53;5113429;28;1059;-57
2022/01/30 10:50:48;;;;;;;;;;;;;;;0.94;66.36;99503.59;5113664;28;881;-57
2022/01/30 10:53:20;;;;;;;;;;;;;;;0.95;66.22;99496.22;5113458;28;842;-57
2022/01/30 10:55:47;;;;;;;;;;;;;;;1.02;67.00;99485.50;5095124;28;1303;-57
2022/01/30 10:58:17;;;;;;;;;;;;;;;1.01;65.58;99482.00;5113236;28;926;-56
2022/01/30 11:00:54;;;;;;;;;;;;;;;1.00;66.42;99472.28;5113069;28;1902;-55
2022/01/30 11:03:40;;;;;;;;;;;;;;;1.11;66.24;99455.41;5113104;28;945;-57
2022/01/30 11:06:10;;;;;;;;;;;;;;;1.30;65.12;99450.13;5113035;28;941;-57
2022/01/30 11:08:40;;;;;;;;;;;;;;;1.49;64.24;99443.97;5112966;28;914;-57
2022/01/30 11:11:12;;;;;;;;;;;;;;;1.67;64.03;99430.03;5113089;28;917;-57
2022/01/30 11:14:17;;;;;;;;;;;;;;;2.12;63.43;99426.81;5112347;28;893;-57
2022/01/30 11:19:19;;;;;;;;;;;;;;;2.42;61.22;99424.38;5113214;28;723;-57
2022/01/30 11:21:49;;;;;;;;;;;;;;;2.43;60.76;99415.06;5112755;28;1906;-57
2022/01/30 11:24:16;;;;;;;;;;;;;;;2.40;60.70;99409.53;5112635;28;870;-57
2022/01/30 11:26:44;;;;;;;;;;;;;;;2.49;61.33;99401.91;5112739;28;854;-57
2022/01/30 11:29:11;;;;;;;;;;;;;;;2.50;60.10;99400.78;5112714;28;885;-57
2022/01/30 11:31:37;;;;;;;;;;;;;;;2.57;60.55;99395.47;5112912;28;850;-57
2022/01/30 11:34:04;;;;;;;;;;;;;;;2.51;60.22;99388.69;5112669;28;830;-57
2022/01/30 11:36:32;;;;;;;;;;;;;;;2.47;59.56;99382.38;5112518;28;976;-57
2022/01/30 11:38:58;;;;;;;;;;;;;;;2.47;59.58;99376.94;5094132;28;1594;-56
2022/01/30 11:41:25;;;;;;;;;;;;;;;2.59;59.25;99376.78;5112382;28;1881;-57
2022/01/30 11:44:10;;;;;;;;;;;;;;;2.55;58.98;99369.69;5112441;28;854;-57
2022/01/30 11:46:36;;;;;;;;;;;;;;;2.52;58.93;99368.47;5112449;28;806;-57
2022/01/30 11:49:12;;;;;;;;;;;;;;;2.47;58.48;99371.47;5112456;28;826;-57
2022/01/30 11:51:49;;;;;;;;;;;;;;;2.56;58.22;99352.97;5112311;28;798;-57
2022/01/30 11:54:36;;;;;;;;;;;;;;;2.68;58.42;99346.56;5128163;27;903;-57
2022/01/30 11:57:03;;;;;;;;;;;;;;;2.76;57.83;99345.53;5112071;28;1215;-57
2022/01/30 11:59:38;;;;;;;;;;;;;;;2.79;57.40;99344.03;5112305;28;905;-57
2022/01/30 12:02:24;;;;;;;;;;;;;;;2.76;57.98;99331.91;5112058;28;1881;-57
2022/01/30 12:04:57;;;;;;;;;;;;;;;2.74;57.37;99330.69;5128079;27;1646;-57
2022/01/30 12:07:33;;;;;;;;;;;;;;;2.70;57.13;99324.38;5111975;28;897;-57
2022/01/30 12:10:17;;;;;;;;;;;;;;;2.59;58.00;99319.50;5112083;28;819;-57
2022/01/30 12:12:47;;;;;;;;;;;;;;;2.51;57.65;99312.31;5128014;27;1612;-57
2022/01/30 12:15:32;;;;;;;;;;;;;;;2.41;57.47;99307.44;5111946;28;969;-57
2022/01/30 12:17:59;;;;;;;;;;;;;;;2.39;58.12;99337.00;5111973;28;1333;-57
2022/01/30 12:20:26;;;;;;;;;;;;;;;2.42;57.15;99325.41;5111996;28;893;-57
2022/01/30 12:22:53;;;;;;;;;;;;;;;2.44;56.88;99328.56;5112446;28;1905;-57
2022/01/30 12:25:21;;;;;;;;;;;;;;;2.42;57.23;99330.84;5118758;28;936;-57
2022/01/30 12:27:49;;;;;;;;;;;;;;;2.42;57.28;99326.19;5118782;28;916;-57
2022/01/30 12:30:34;;;;;;;;;;;;;;;2.40;56.75;99327.69;5118681;28;849;-56
2022/01/30 12:33:01;;;;;;;;;;;;;;;2.43;56.90;99319.59;5118890;28;920;-55
2022/01/30 12:35:28;;;;;;;;;;;;;;;2.37;56.59;99304.66;5118812;28;952;-56
2022/01/30 12:37:54;;;;;;;;;;;;;;;2.51;56.93;99295.94;5119129;28;850;-57
2022/01/30 12:40:21;;;;;;;;;;;;;;;2.51;56.35;99292.44;5118648;28;802;-56
2022/01/30 12:42:48;;;;;;;;;;;;;;;2.52;57.19;99289.34;5119248;28;1885;-57
2022/01/30 12:45:15;;;;;;;;;;;;;;;2.63;57.01;99293.06;5118833;28;874;-57
2022/01/30 12:47:48;;;;;;;;;;;;;;;2.71;56.30;99283.09;5118857;28;925;-58
2022/01/30 12:50:15;;;;;;;;;;;;;;;2.80;56.49;99280.13;5118484;28;905;-57
2022/01/30 12:52:47;;;;;;;;;;;;;;;2.96;56.30;99269.06;5118495;28;786;-57
2022/01/30 12:55:15;;;;;;;;;;;;;;;3.04;55.67;99262.59;5118508;28;928;-57
2022/01/30 12:57:42;;;;;;;;;;;;;;;3.20;54.93;99246.88;5118328;28;889;-57
2022/01/30 13:00:10;;;;;;;;;;;;;;;3.33;54.65;99244.72;5100390;28;814;-58
2022/01/30 13:02:37;;;;;;;;;;;;;;;4.19;53.98;99228.66;5118303;28;1940;-57
2022/01/30 13:05:07;;;;;;;;;;;;;;;4.74;52.06;99228.84;5118714;28;810;-58
2022/01/30 13:07:34;;;;;;;;;;;;;;;4.81;51.61;99233.59;5118271;28;862;-57
2022/01/30 13:10:13;;;;;;;;;;;;;;;4.83;51.43;99228.53;5118391;28;920;-57
2022/01/30 13:12:45;;;;;;;;;;;;;;;4.72;51.11;99209.28;5100115;28;905;-57
2022/01/30 13:15:17;;;;;;;;;;;;;;;5.04;51.06;99227.94;5118225;28;959;-57
2022/01/30 13:17:45;;;;;;;;;;;;;;;5.47;49.22;99220.00;5118025;28;1332;-57
2022/01/30 13:20:12;;;;;;;;;;;;;;;5.25;49.27;99217.13;5118263;28;819;-57
2022/01/30 13:22:40;;;;;;;;;;;;;;;4.72;49.77;99209.28;5118150;28;1906;-57
2022/01/30 13:25:10;;;;;;;;;;;;;;;4.37;50.53;99202.28;5118169;28;869;-57
2022/01/30 13:27:41;;;;;;;;;;;;;;;4.23;50.77;99202.13;5119151;28;833;-57
2022/01/30 13:30:07;;;;;;;;;;;;;;;4.08;50.69;99182.81;5118086;28;857;-57
2022/01/30 13:32:36;;;;;;;;;;;;;;;4.11;50.99;99177.78;5099880;28;1711;-57
2022/01/30 13:35:03;;;;;;;;;;;;;;;4.20;50.86;99162.63;5116156;28;811;-58
2022/01/30 13:37:34;;;;;;;;;;;;;;;4.11;51.35;99173.09;5114848;28;1311;-56
2022/01/30 13:40:15;;;;;;;;;;;;;;;4.64;50.39;99161.09;5114828;28;858;-57
2022/01/30 13:42:49;;;;;;;;;;;;;;;5.02;49.47;99167.25;5114648;28;1889;-57
2022/01/30 13:47:53;;;;;;;;;;;;;;;5.49;47.25;99160.13;5114673;28;700;-57
2022/01/30 13:50:20;;;;;;;;;;;;;;;5.61;47.02;99159.00;5114916;28;1085;-57
2022/01/30 13:52:47;;;;;;;;;;;;;;;5.61;46.91;99164.47;5096250;28;885;-57
2022/01/30 13:55:14;;;;;;;;;;;;;;;5.02;46.69;99159.81;5114558;28;842;-57
2022/01/30 13:57:43;;;;;;;;;;;;;;;4.35;48.21;99146.34;5114505;28;813;-57
2022/01/30 14:00:17;;;;;;;;;;;;;;;4.63;48.34;99135.69;5114860;28;866;-57
2022/01/30 14:02:56;;;;;;;;;;;;;;;4.84;47.82;99142.47;5114625;28;1882;-57
2022/01/30 14:05:24;;;;;;;;;;;;;;;5.06;47.37;99140.69;5114189;28;917;-57